sensor_id;sensor_type;location;lat;lon;timestamp;temperature;humidity
4697;DHT22;2362;50.780;0.292;2023-08-20T00:01:27;15.60;99.90
4697;DHT22;2362;50.780;0.292;2023-08-20T00:03:54;15.60;99.90
4697;DHT22;2362;50.780;0.292;2023-08-20T00:06:21;15.60;99.90
4697;DHT22;2362;50.780;0.292;2023-08-20T00:08:47;15.60;99.90
4697;DHT22;2362;50.780;0.292;2023-08-20T00:11:13;15.50;99.90
4697;DHT22;2362;50.780;0.292;2023-08-20T00:13:39;15.50;99.90
4697;DHT22;2362;50.780;0.292;2023-08-20T00:16:05;15.50;99.90
4697;DHT22;2362;50.780;0.292;2023-08-20T00:18:31;15.50;99.90
4697;DHT22;2362;50.780;0.292;2023-08-20T00:20:57;15.50;99.90
4697;DHT22;2362;50.780;0.292;2023-08-20T00:23:23;15.50;99.90
4697;DHT22;2362;50.780;0.292;2023-08-20T00:25:49;15.60;99.90
4697;DHT22;2362;50.780;0.292;2023-08-20T00:28:15;15.60;99.90
4697;DHT22;2362;50.780;0.292;2023-08-20T00:30:41;15.70;99.90
4697;DHT22;2362;50.780;0.292;2023-08-20T00:33:06;15.70;99.90
4697;DHT22;2362;50.780;0.292;2023-08-20T00:35:32;15.70;99.90
4697;DHT22;2362;50.780;0.292;2023-08-20T00:37:58;15.70;99.90
4697;DHT22;2362;50.780;0.292;2023-08-20T00:40:24;15.80;99.90
4697;DHT22;2362;50.780;0.292;2023-08-20T00:42:49;15.70;99.90
4697;DHT22;2362;50.780;0.292;2023-08-20T00:45:15;15.70;99.90
4697;DHT22;2362;50.780;0.292;2023-08-20T00:47:44;15.70;99.90
4697;DHT22;2362;50.780;0.292;2023-08-20T00:50:11;15.80;99.90
4697;DHT22;2362;50.780;0.292;2023-08-20T00:52:38;15.80;99.90
4697;DHT22;2362;50.780;0.292;2023-08-20T00:55:10;15.90;99.90
4697;DHT22;2362;50.780;0.292;2023-08-20T00:57:37;15.90;99.90
4697;DHT22;2362;50.780;0.292;2023-08-20T01:00:03;15.90;99.90
4697;DHT22;2362;50.780;0.292;2023-08-20T01:02:43;15.80;99.90
4697;DHT22;2362;50.780;0.292;2023-08-20T01:05:11;15.80;99.90
4697;DHT22;2362;50.780;0.292;2023-08-20T01:07:54;15.70;99.90
4697;DHT22;2362;50.780;0.292;2023-08-20T01:13:11;15.70;99.90
4697;DHT22;2362;50.780;0.292;2023-08-20T01:15:37;15.60;99.90
4697;DHT22;2362;50.780;0.292;2023-08-20T01:18:02;15.60;99.90
4697;DHT22;2362;50.780;0.292;2023-08-20T01:20:36;15.60;99.90
4697;DHT22;2362;50.780;0.292;2023-08-20T01:28:40;15.60;99.90
4697;DHT22;2362;50.780;0.292;2023-08-20T01:31:07;15.70;99.90
4697;DHT22;2362;50.780;0.292;2023-08-20T01:33:34;15.70;99.90
4697;DHT22;2362;50.780;0.292;2023-08-20T01:35:59;15.80;99.90
4697;DHT22;2362;50.780;0.292;2023-08-20T01:38:25;15.80;99.90
4697;DHT22;2362;50.780;0.292;2023-08-20T01:40:51;15.70;99.90
4697;DHT22;2362;50.780;0.292;2023-08-20T01:43:17;15.80;99.90
4697;DHT22;2362;50.780;0.292;2023-08-20T01:45:43;15.80;99.90
4697;DHT22;2362;50.780;0.292;2023-08-20T01:48:09;15.80;99.90
4697;DHT22;2362;50.780;0.292;2023-08-20T01:50:35;15.70;99.90
4697;DHT22;2362;50.780;0.292;2023-08-20T01:53:01;15.70;99.90
4697;DHT22;2362;50.780;0.292;2023-08-20T01:55:28;15.70;99.90
4697;DHT22;2362;50.780;0.292;2023-08-20T01:57:54;15.80;99.90
4697;DHT22;2362;50.780;0.292;2023-08-20T02:00:19;15.80;99.90
4697;DHT22;2362;50.780;0.292;2023-08-20T02:02:45;15.90;99.90
4697;DHT22;2362;50.780;0.292;2023-08-20T02:05:11;16.00;99.90
4697;DHT22;2362;50.780;0.292;2023-08-20T02:07:36;16.10;99.90
4697;DHT22;2362;50.780;0.292;2023-08-20T02:10:02;16.10;99.90
4697;DHT22;2362;50.780;0.292;2023-08-20T02:12:28;16.30;99.90
4697;DHT22;2362;50.780;0.292;2023-08-20T02:14:54;16.40;99.90
4697;DHT22;2362;50.780;0.292;2023-08-20T02:17:19;16.40;99.90
4697;DHT22;2362;50.780;0.292;2023-08-20T02:19:45;16.40;99.90
4697;DHT22;2362;50.780;0.292;2023-08-20T02:22:11;16.40;99.90
4697;DHT22;2362;50.780;0.292;2023-08-20T02:24:36;16.40;99.90
4697;DHT22;2362;50.780;0.292;2023-08-20T02:27:02;16.40;99.90
4697;DHT22;2362;50.780;0.292;2023-08-20T02:29:29;16.40;99.90
4697;DHT22;2362;50.780;0.292;2023-08-20T02:31:54;16.40;99.90
4697;DHT22;2362;50.780;0.292;2023-08-20T02:34:20;16.40;99.90
4697;DHT22;2362;50.780;0.292;2023-08-20T02:36:45;16.40;99.90
4697;DHT22;2362;50.780;0.292;2023-08-20T02:39:12;16.50;99.90
4697;DHT22;2362;50.780;0.292;2023-08-20T02:41:38;16.50;99.90
4697;DHT22;2362;50.780;0.292;2023-08-20T02:44:04;16.40;99.90
4697;DHT22;2362;50.780;0.292;2023-08-20T02:46:30;16.40;99.90
4697;DHT22;2362;50.780;0.292;2023-08-20T02:48:55;16.30;99.90
4697;DHT22;2362;50.780;0.292;2023-08-20T02:51:21;16.30;99.90
4697;DHT22;2362;50.780;0.292;2023-08-20T02:53:47;16.30;99.90
4697;DHT22;2362;50.780;0.292;2023-08-20T02:56:13;16.20;99.90
4697;DHT22;2362;50.780;0.292;2023-08-20T02:58:38;16.20;99.90
4697;DHT22;2362;50.780;0.292;2023-08-20T03:01:04;16.10;99.90
4697;DHT22;2362;50.780;0.292;2023-08-20T03:03:30;16.10;99.90
4697;DHT22;2362;50.780;0.292;2023-08-20T03:05:56;16.10;99.90
4697;DHT22;2362;50.780;0.292;2023-08-20T03:08:22;16.10;99.90
4697;DHT22;2362;50.780;0.292;2023-08-20T03:10:47;16.10;99.90
4697;DHT22;2362;50.780;0.292;2023-08-20T03:13:13;16.00;99.90
4697;DHT22;2362;50.780;0.292;2023-08-20T03:15:39;16.00;99.90
4697;DHT22;2362;50.780;0.292;2023-08-20T03:18:05;16.00;99.90
4697;DHT22;2362;50.780;0.292;2023-08-20T03:20:31;16.00;99.90
4697;DHT22;2362;50.780;0.292;2023-08-20T03:22:57;15.90;99.90
4697;DHT22;2362;50.780;0.292;2023-08-20T03:25:23;16.00;99.90
4697;DHT22;2362;50.780;0.292;2023-08-20T03:27:52;15.90;99.90
4697;DHT22;2362;50.780;0.292;2023-08-20T03:30:17;15.90;99.90
4697;DHT22;2362;50.780;0.292;2023-08-20T03:32:43;15.80;99.90
4697;DHT22;2362;50.780;0.292;2023-08-20T03:35:09;15.80;99.90
4697;DHT22;2362;50.780;0.292;2023-08-20T03:37:34;15.80;99.90
4697;DHT22;2362;50.780;0.292;2023-08-20T03:40:00;15.80;99.90
4697;DHT22;2362;50.780;0.292;2023-08-20T03:42:26;15.80;99.90
4697;DHT22;2362;50.780;0.292;2023-08-20T03:44:51;15.70;99.90
4697;DHT22;2362;50.780;0.292;2023-08-20T03:47:17;15.70;99.90
4697;DHT22;2362;50.780;0.292;2023-08-20T03:49:46;15.70;99.90
4697;DHT22;2362;50.780;0.292;2023-08-20T03:52:13;15.60;99.90
4697;DHT22;2362;50.780;0.292;2023-08-20T03:54:39;15.60;99.90
4697;DHT22;2362;50.780;0.292;2023-08-20T03:57:04;15.60;99.90
4697;DHT22;2362;50.780;0.292;2023-08-20T03:59:30;15.70;99.90
4697;DHT22;2362;50.780;0.292;2023-08-20T04:01:56;15.70;99.90
4697;DHT22;2362;50.780;0.292;2023-08-20T04:04:22;15.70;99.90
4697;DHT22;2362;50.780;0.292;2023-08-20T04:06:48;15.70;99.90
4697;DHT22;2362;50.780;0.292;2023-08-20T04:09:14;15.70;99.90
4697;DHT22;2362;50.780;0.292;2023-08-20T04:11:39;15.70;99.90
4697;DHT22;2362;50.780;0.292;2023-08-20T04:14:05;15.80;99.90
4697;DHT22;2362;50.780;0.292;2023-08-20T04:16:30;15.70;99.90
4697;DHT22;2362;50.780;0.292;2023-08-20T04:18:56;15.70;99.90
4697;DHT22;2362;50.780;0.292;2023-08-20T04:21:22;15.60;99.90
4697;DHT22;2362;50.780;0.292;2023-08-20T04:23:48;15.50;99.90
4697;DHT22;2362;50.780;0.292;2023-08-20T04:26:13;15.50;99.90
4697;DHT22;2362;50.780;0.292;2023-08-20T04:28:39;15.40;99.90
4697;DHT22;2362;50.780;0.292;2023-08-20T04:31:05;15.30;99.90
4697;DHT22;2362;50.780;0.292;2023-08-20T04:33:30;15.30;99.90
4697;DHT22;2362;50.780;0.292;2023-08-20T04:35:56;15.30;99.90
4697;DHT22;2362;50.780;0.292;2023-08-20T04:38:22;15.30;99.90
4697;DHT22;2362;50.780;0.292;2023-08-20T04:40:48;15.40;99.90
4697;DHT22;2362;50.780;0.292;2023-08-20T04:43:15;15.40;99.90
4697;DHT22;2362;50.780;0.292;2023-08-20T04:45:41;15.40;99.90
4697;DHT22;2362;50.780;0.292;2023-08-20T04:48:08;15.40;99.90
4697;DHT22;2362;50.780;0.292;2023-08-20T04:50:34;15.40;99.90
4697;DHT22;2362;50.780;0.292;2023-08-20T04:53:00;15.30;99.90
4697;DHT22;2362;50.780;0.292;2023-08-20T04:55:26;15.30;99.90
4697;DHT22;2362;50.780;0.292;2023-08-20T04:57:52;15.30;99.90
4697;DHT22;2362;50.780;0.292;2023-08-20T05:00:18;15.20;99.90
4697;DHT22;2362;50.780;0.292;2023-08-20T05:02:43;15.20;99.90
4697;DHT22;2362;50.780;0.292;2023-08-20T05:05:10;15.30;99.90
4697;DHT22;2362;50.780;0.292;2023-08-20T05:07:36;15.30;99.90
4697;DHT22;2362;50.780;0.292;2023-08-20T05:10:02;15.40;99.90
4697;DHT22;2362;50.780;0.292;2023-08-20T05:12:28;15.50;99.90
4697;DHT22;2362;50.780;0.292;2023-08-20T05:14:53;15.50;99.90
4697;DHT22;2362;50.780;0.292;2023-08-20T05:17:19;15.60;99.90
4697;DHT22;2362;50.780;0.292;2023-08-20T05:19:45;15.60;99.90
4697;DHT22;2362;50.780;0.292;2023-08-20T05:22:11;15.80;99.90
4697;DHT22;2362;50.780;0.292;2023-08-20T05:24:37;15.80;99.90
4697;DHT22;2362;50.780;0.292;2023-08-20T05:27:08;15.80;99.90
4697;DHT22;2362;50.780;0.292;2023-08-20T05:29:33;15.80;99.90
4697;DHT22;2362;50.780;0.292;2023-08-20T05:31:59;15.80;99.90
4697;DHT22;2362;50.780;0.292;2023-08-20T05:34:25;15.80;99.90
4697;DHT22;2362;50.780;0.292;2023-08-20T05:36:51;15.80;99.90
4697;DHT22;2362;50.780;0.292;2023-08-20T05:39:16;15.80;99.90
4697;DHT22;2362;50.780;0.292;2023-08-20T05:41:42;15.80;99.90
4697;DHT22;2362;50.780;0.292;2023-08-20T05:44:07;15.80;99.90
4697;DHT22;2362;50.780;0.292;2023-08-20T05:46:33;15.90;99.90
4697;DHT22;2362;50.780;0.292;2023-08-20T05:49:06;16.00;99.90
4697;DHT22;2362;50.780;0.292;2023-08-20T05:51:32;16.10;99.90
4697;DHT22;2362;50.780;0.292;2023-08-20T05:53:58;16.20;99.90
4697;DHT22;2362;50.780;0.292;2023-08-20T05:56:23;16.50;99.90
4697;DHT22;2362;50.780;0.292;2023-08-20T05:58:49;17.10;99.90
4697;DHT22;2362;50.780;0.292;2023-08-20T06:01:14;17.50;99.90
4697;DHT22;2362;50.780;0.292;2023-08-20T06:03:40;18.20;99.90
4697;DHT22;2362;50.780;0.292;2023-08-20T06:06:06;18.90;99.90
4697;DHT22;2362;50.780;0.292;2023-08-20T06:08:32;19.50;99.90
4697;DHT22;2362;50.780;0.292;2023-08-20T06:10:57;19.70;99.90
4697;DHT22;2362;50.780;0.292;2023-08-20T06:13:23;19.60;99.90
4697;DHT22;2362;50.780;0.292;2023-08-20T06:15:48;19.70;99.90
4697;DHT22;2362;50.780;0.292;2023-08-20T06:18:14;19.90;99.90
4697;DHT22;2362;50.780;0.292;2023-08-20T06:20:40;19.80;99.90
4697;DHT22;2362;50.780;0.292;2023-08-20T06:23:06;19.80;99.90
4697;DHT22;2362;50.780;0.292;2023-08-20T06:25:32;20.00;99.90
4697;DHT22;2362;50.780;0.292;2023-08-20T06:27:58;20.60;99.90
4697;DHT22;2362;50.780;0.292;2023-08-20T06:30:23;21.40;99.90
4697;DHT22;2362;50.780;0.292;2023-08-20T06:32:49;22.00;99.90
4697;DHT22;2362;50.780;0.292;2023-08-20T06:35:14;22.60;99.90
4697;DHT22;2362;50.780;0.292;2023-08-20T06:37:40;23.30;99.90
4697;DHT22;2362;50.780;0.292;2023-08-20T06:40:07;23.70;99.90
4697;DHT22;2362;50.780;0.292;2023-08-20T06:42:32;24.20;99.90
4697;DHT22;2362;50.780;0.292;2023-08-20T06:44:58;24.50;99.90
4697;DHT22;2362;50.780;0.292;2023-08-20T06:47:24;25.00;99.90
4697;DHT22;2362;50.780;0.292;2023-08-20T06:49:50;25.10;99.90
4697;DHT22;2362;50.780;0.292;2023-08-20T06:52:16;25.50;99.90
4697;DHT22;2362;50.780;0.292;2023-08-20T06:54:42;25.70;99.90
4697;DHT22;2362;50.780;0.292;2023-08-20T06:57:07;25.70;99.90
4697;DHT22;2362;50.780;0.292;2023-08-20T06:59:33;25.70;99.90
4697;DHT22;2362;50.780;0.292;2023-08-20T07:01:59;25.10;99.90
4697;DHT22;2362;50.780;0.292;2023-08-20T07:04:24;24.40;99.90
4697;DHT22;2362;50.780;0.292;2023-08-20T07:06:51;24.30;99.90
4697;DHT22;2362;50.780;0.292;2023-08-20T07:09:16;24.10;99.90
4697;DHT22;2362;50.780;0.292;2023-08-20T07:11:42;24.10;99.90
4697;DHT22;2362;50.780;0.292;2023-08-20T07:14:08;24.50;99.90
4697;DHT22;2362;50.780;0.292;2023-08-20T07:16:33;24.70;99.90
4697;DHT22;2362;50.780;0.292;2023-08-20T07:18:59;25.00;99.90
4697;DHT22;2362;50.780;0.292;2023-08-20T07:21:25;25.10;99.90
4697;DHT22;2362;50.780;0.292;2023-08-20T07:23:50;25.10;99.90
4697;DHT22;2362;50.780;0.292;2023-08-20T07:26:16;25.40;99.90
4697;DHT22;2362;50.780;0.292;2023-08-20T07:28:42;25.70;99.90
4697;DHT22;2362;50.780;0.292;2023-08-20T07:31:27;25.90;99.90
4697;DHT22;2362;50.780;0.292;2023-08-20T07:33:54;25.80;99.90
4697;DHT22;2362;50.780;0.292;2023-08-20T07:36:21;25.60;99.90
4697;DHT22;2362;50.780;0.292;2023-08-20T07:38:48;26.20;99.90
4697;DHT22;2362;50.780;0.292;2023-08-20T07:41:14;26.80;99.90
4697;DHT22;2362;50.780;0.292;2023-08-20T07:43:40;26.20;99.90
4697;DHT22;2362;50.780;0.292;2023-08-20T07:46:07;26.00;99.90
4697;DHT22;2362;50.780;0.292;2023-08-20T07:48:34;25.90;99.90
4697;DHT22;2362;50.780;0.292;2023-08-20T07:51:01;25.40;99.90
4697;DHT22;2362;50.780;0.292;2023-08-20T07:53:27;25.40;99.90
4697;DHT22;2362;50.780;0.292;2023-08-20T07:55:53;25.40;99.90
4697;DHT22;2362;50.780;0.292;2023-08-20T07:58:18;25.90;99.90
4697;DHT22;2362;50.780;0.292;2023-08-20T08:00:44;26.30;99.90
4697;DHT22;2362;50.780;0.292;2023-08-20T08:03:10;26.20;99.90
4697;DHT22;2362;50.780;0.292;2023-08-20T08:05:36;25.70;99.90
4697;DHT22;2362;50.780;0.292;2023-08-20T08:08:02;25.30;99.90
4697;DHT22;2362;50.780;0.292;2023-08-20T08:10:28;25.60;99.90
4697;DHT22;2362;50.780;0.292;2023-08-20T08:12:54;26.10;99.90
4697;DHT22;2362;50.780;0.292;2023-08-20T08:15:20;26.50;99.90
4697;DHT22;2362;50.780;0.292;2023-08-20T08:17:45;26.70;99.90
4697;DHT22;2362;50.780;0.292;2023-08-20T08:20:11;26.30;99.90
4697;DHT22;2362;50.780;0.292;2023-08-20T08:22:37;26.00;99.90
4697;DHT22;2362;50.780;0.292;2023-08-20T08:25:02;25.80;99.90
4697;DHT22;2362;50.780;0.292;2023-08-20T08:27:28;25.30;99.90
4697;DHT22;2362;50.780;0.292;2023-08-20T08:29:54;24.90;99.90
4697;DHT22;2362;50.780;0.292;2023-08-20T08:32:19;25.00;99.90
4697;DHT22;2362;50.780;0.292;2023-08-20T08:34:45;24.80;99.90
4697;DHT22;2362;50.780;0.292;2023-08-20T08:37:11;25.30;99.90
4697;DHT22;2362;50.780;0.292;2023-08-20T08:39:37;25.50;99.90
4697;DHT22;2362;50.780;0.292;2023-08-20T08:42:04;25.70;99.90
4697;DHT22;2362;50.780;0.292;2023-08-20T08:44:34;24.80;99.90
4697;DHT22;2362;50.780;0.292;2023-08-20T08:47:01;24.90;99.90
4697;DHT22;2362;50.780;0.292;2023-08-20T08:49:27;24.70;99.90
4697;DHT22;2362;50.780;0.292;2023-08-20T08:51:56;25.00;99.90
4697;DHT22;2362;50.780;0.292;2023-08-20T08:54:23;25.20;99.90
4697;DHT22;2362;50.780;0.292;2023-08-20T08:56:50;25.20;99.90
4697;DHT22;2362;50.780;0.292;2023-08-20T08:59:16;25.40;99.90
4697;DHT22;2362;50.780;0.292;2023-08-20T09:01:41;25.00;99.90
4697;DHT22;2362;50.780;0.292;2023-08-20T09:04:07;24.60;99.90
4697;DHT22;2362;50.780;0.292;2023-08-20T09:06:45;24.10;99.90
4697;DHT22;2362;50.780;0.292;2023-08-20T09:09:12;23.70;99.90
4697;DHT22;2362;50.780;0.292;2023-08-20T09:11:37;23.50;99.90
4697;DHT22;2362;50.780;0.292;2023-08-20T09:14:03;23.60;99.90
4697;DHT22;2362;50.780;0.292;2023-08-20T09:16:30;23.40;99.90
4697;DHT22;2362;50.780;0.292;2023-08-20T09:18:59;23.30;99.90
4697;DHT22;2362;50.780;0.292;2023-08-20T09:21:27;23.30;99.90
4697;DHT22;2362;50.780;0.292;2023-08-20T09:23:57;23.10;99.90
4697;DHT22;2362;50.780;0.292;2023-08-20T09:26:25;23.20;99.90
4697;DHT22;2362;50.780;0.292;2023-08-20T09:28:54;23.30;99.90
4697;DHT22;2362;50.780;0.292;2023-08-20T09:31:37;23.40;99.90
4697;DHT22;2362;50.780;0.292;2023-08-20T09:34:03;23.00;99.90
4697;DHT22;2362;50.780;0.292;2023-08-20T09:36:34;23.00;99.90
4697;DHT22;2362;50.780;0.292;2023-08-20T09:39:01;22.90;99.90
4697;DHT22;2362;50.780;0.292;2023-08-20T09:41:28;22.80;99.90
4697;DHT22;2362;50.780;0.292;2023-08-20T09:43:57;23.00;99.90
4697;DHT22;2362;50.780;0.292;2023-08-20T09:46:27;23.20;99.90
4697;DHT22;2362;50.780;0.292;2023-08-20T09:48:56;23.50;99.90
4697;DHT22;2362;50.780;0.292;2023-08-20T09:51:27;23.60;99.90
4697;DHT22;2362;50.780;0.292;2023-08-20T09:54:12;23.40;99.90
4697;DHT22;2362;50.780;0.292;2023-08-20T09:56:39;23.40;99.90
4697;DHT22;2362;50.780;0.292;2023-08-20T09:59:06;23.20;99.90
4697;DHT22;2362;50.780;0.292;2023-08-20T10:01:33;23.10;99.90
4697;DHT22;2362;50.780;0.292;2023-08-20T10:03:59;22.90;99.90
4697;DHT22;2362;50.780;0.292;2023-08-20T10:06:25;22.80;99.90
4697;DHT22;2362;50.780;0.292;2023-08-20T10:08:53;22.80;99.90
4697;DHT22;2362;50.780;0.292;2023-08-20T10:11:19;22.70;99.90
4697;DHT22;2362;50.780;0.292;2023-08-20T10:13:45;22.50;99.90
4697;DHT22;2362;50.780;0.292;2023-08-20T10:16:12;22.10;99.90
4697;DHT22;2362;50.780;0.292;2023-08-20T10:18:39;21.90;99.90
4697;DHT22;2362;50.780;0.292;2023-08-20T10:21:05;22.10;99.90
4697;DHT22;2362;50.780;0.292;2023-08-20T10:23:33;22.20;99.90
4697;DHT22;2362;50.780;0.292;2023-08-20T10:26:10;22.10;99.90
4697;DHT22;2362;50.780;0.292;2023-08-20T10:28:36;22.20;99.90
4697;DHT22;2362;50.780;0.292;2023-08-20T10:31:11;22.10;99.90
4697;DHT22;2362;50.780;0.292;2023-08-20T10:33:48;22.10;99.90
4697;DHT22;2362;50.780;0.292;2023-08-20T10:36:16;22.30;99.90
4697;DHT22;2362;50.780;0.292;2023-08-20T10:38:45;22.50;99.90
4697;DHT22;2362;50.780;0.292;2023-08-20T10:41:11;22.50;99.90
4697;DHT22;2362;50.780;0.292;2023-08-20T10:43:46;22.30;99.90
4697;DHT22;2362;50.780;0.292;2023-08-20T10:49:01;22.30;99.90
4697;DHT22;2362;50.780;0.292;2023-08-20T10:51:28;22.40;99.90
4697;DHT22;2362;50.780;0.292;2023-08-20T10:59:29;22.70;99.90
4697;DHT22;2362;50.780;0.292;2023-08-20T11:01:59;22.90;99.90
4697;DHT22;2362;50.780;0.292;2023-08-20T11:04:47;23.00;99.90
4697;DHT22;2362;50.780;0.292;2023-08-20T11:07:17;23.10;99.90
4697;DHT22;2362;50.780;0.292;2023-08-20T11:09:43;23.20;99.90
4697;DHT22;2362;50.780;0.292;2023-08-20T11:12:10;23.40;99.90
4697;DHT22;2362;50.780;0.292;2023-08-20T11:14:36;23.40;99.90
4697;DHT22;2362;50.780;0.292;2023-08-20T11:17:01;23.10;99.90
4697;DHT22;2362;50.780;0.292;2023-08-20T11:19:28;23.10;99.90
4697;DHT22;2362;50.780;0.292;2023-08-20T11:21:54;23.10;99.90
4697;DHT22;2362;50.780;0.292;2023-08-20T11:24:20;22.90;99.90
4697;DHT22;2362;50.780;0.292;2023-08-20T11:26:47;22.80;99.90
4697;DHT22;2362;50.780;0.292;2023-08-20T11:29:14;22.80;99.90
4697;DHT22;2362;50.780;0.292;2023-08-20T11:31:45;22.80;99.90
4697;DHT22;2362;50.780;0.292;2023-08-20T11:34:11;22.70;99.90
4697;DHT22;2362;50.780;0.292;2023-08-20T11:36:38;22.60;99.90
4697;DHT22;2362;50.780;0.292;2023-08-20T11:39:05;22.50;99.90
4697;DHT22;2362;50.780;0.292;2023-08-20T11:41:31;22.50;99.90
4697;DHT22;2362;50.780;0.292;2023-08-20T11:44:00;22.30;99.90
4697;DHT22;2362;50.780;0.292;2023-08-20T11:46:26;22.20;99.90
4697;DHT22;2362;50.780;0.292;2023-08-20T11:48:59;22.50;99.90
4697;DHT22;2362;50.780;0.292;2023-08-20T11:51:26;22.40;99.90
4697;DHT22;2362;50.780;0.292;2023-08-20T11:53:52;22.10;99.90
4697;DHT22;2362;50.780;0.292;2023-08-20T11:56:17;22.00;99.90
4697;DHT22;2362;50.780;0.292;2023-08-20T11:58:43;22.00;99.90
4697;DHT22;2362;50.780;0.292;2023-08-20T12:01:09;22.10;99.90
4697;DHT22;2362;50.780;0.292;2023-08-20T12:03:37;22.10;99.90
4697;DHT22;2362;50.780;0.292;2023-08-20T12:06:19;21.90;99.90
4697;DHT22;2362;50.780;0.292;2023-08-20T12:08:45;22.00;99.90
4697;DHT22;2362;50.780;0.292;2023-08-20T12:11:12;22.20;99.90
4697;DHT22;2362;50.780;0.292;2023-08-20T12:13:37;22.40;99.90
4697;DHT22;2362;50.780;0.292;2023-08-20T12:16:03;22.70;99.90
4697;DHT22;2362;50.780;0.292;2023-08-20T12:18:29;22.80;99.90
4697;DHT22;2362;50.780;0.292;2023-08-20T12:20:55;22.90;99.90
4697;DHT22;2362;50.780;0.292;2023-08-20T12:23:21;22.80;99.90
4697;DHT22;2362;50.780;0.292;2023-08-20T12:25:50;22.70;99.90
4697;DHT22;2362;50.780;0.292;2023-08-20T12:28:16;22.40;99.90
4697;DHT22;2362;50.780;0.292;2023-08-20T12:30:43;22.20;99.90
4697;DHT22;2362;50.780;0.292;2023-08-20T12:33:09;22.20;99.90
4697;DHT22;2362;50.780;0.292;2023-08-20T12:35:35;22.30;99.90
4697;DHT22;2362;50.780;0.292;2023-08-20T12:38:01;22.20;99.90
4697;DHT22;2362;50.780;0.292;2023-08-20T12:40:26;22.20;99.90
4697;DHT22;2362;50.780;0.292;2023-08-20T12:42:52;22.40;99.90
4697;DHT22;2362;50.780;0.292;2023-08-20T12:45:18;22.40;99.90
4697;DHT22;2362;50.780;0.292;2023-08-20T12:47:43;22.50;99.90
4697;DHT22;2362;50.780;0.292;2023-08-20T12:50:09;22.20;99.90
4697;DHT22;2362;50.780;0.292;2023-08-20T12:52:36;22.10;99.90
4697;DHT22;2362;50.780;0.292;2023-08-20T12:55:02;21.90;99.90
4697;DHT22;2362;50.780;0.292;2023-08-20T12:57:28;22.00;99.90
4697;DHT22;2362;50.780;0.292;2023-08-20T12:59:54;22.10;99.90
4697;DHT22;2362;50.780;0.292;2023-08-20T13:02:20;22.30;99.90
4697;DHT22;2362;50.780;0.292;2023-08-20T13:04:46;22.20;99.90
4697;DHT22;2362;50.780;0.292;2023-08-20T13:07:12;22.10;99.90
4697;DHT22;2362;50.780;0.292;2023-08-20T13:09:38;21.90;99.90
4697;DHT22;2362;50.780;0.292;2023-08-20T13:12:05;22.00;99.90
4697;DHT22;2362;50.780;0.292;2023-08-20T13:14:34;22.10;99.90
4697;DHT22;2362;50.780;0.292;2023-08-20T13:17:00;21.90;99.90
4697;DHT22;2362;50.780;0.292;2023-08-20T13:19:26;22.00;99.90
4697;DHT22;2362;50.780;0.292;2023-08-20T13:21:52;22.00;99.90
4697;DHT22;2362;50.780;0.292;2023-08-20T13:24:17;21.90;99.90
4697;DHT22;2362;50.780;0.292;2023-08-20T13:26:43;21.90;99.90
4697;DHT22;2362;50.780;0.292;2023-08-20T13:29:10;21.80;99.90
4697;DHT22;2362;50.780;0.292;2023-08-20T13:31:36;21.90;99.90
4697;DHT22;2362;50.780;0.292;2023-08-20T13:34:01;22.00;99.90
4697;DHT22;2362;50.780;0.292;2023-08-20T13:36:27;21.90;99.90
4697;DHT22;2362;50.780;0.292;2023-08-20T13:38:53;21.90;99.90
4697;DHT22;2362;50.780;0.292;2023-08-20T13:41:18;22.00;99.90
4697;DHT22;2362;50.780;0.292;2023-08-20T13:43:44;22.00;99.90
4697;DHT22;2362;50.780;0.292;2023-08-20T13:46:10;22.10;99.90
4697;DHT22;2362;50.780;0.292;2023-08-20T13:48:36;22.20;99.90
4697;DHT22;2362;50.780;0.292;2023-08-20T13:51:01;22.30;99.90
4697;DHT22;2362;50.780;0.292;2023-08-20T13:53:27;22.20;99.90
4697;DHT22;2362;50.780;0.292;2023-08-20T13:55:53;22.10;99.90
4697;DHT22;2362;50.780;0.292;2023-08-20T13:58:20;22.10;99.90
4697;DHT22;2362;50.780;0.292;2023-08-20T14:00:46;22.20;99.90
4697;DHT22;2362;50.780;0.292;2023-08-20T14:03:12;22.00;99.90
4697;DHT22;2362;50.780;0.292;2023-08-20T14:05:37;22.00;99.90
4697;DHT22;2362;50.780;0.292;2023-08-20T14:08:03;22.10;99.90
4697;DHT22;2362;50.780;0.292;2023-08-20T14:10:29;22.00;99.90
4697;DHT22;2362;50.780;0.292;2023-08-20T14:12:54;21.80;99.90
4697;DHT22;2362;50.780;0.292;2023-08-20T14:15:20;21.80;99.90
4697;DHT22;2362;50.780;0.292;2023-08-20T14:17:46;21.90;99.90
4697;DHT22;2362;50.780;0.292;2023-08-20T14:20:11;22.00;99.90
4697;DHT22;2362;50.780;0.292;2023-08-20T14:22:39;22.00;99.90
4697;DHT22;2362;50.780;0.292;2023-08-20T14:25:04;22.00;99.90
4697;DHT22;2362;50.780;0.292;2023-08-20T14:27:31;21.90;99.90
4697;DHT22;2362;50.780;0.292;2023-08-20T14:29:56;21.80;99.90
4697;DHT22;2362;50.780;0.292;2023-08-20T14:32:22;21.80;99.90
4697;DHT22;2362;50.780;0.292;2023-08-20T14:34:48;21.60;99.90
4697;DHT22;2362;50.780;0.292;2023-08-20T14:37:13;21.70;99.90
4697;DHT22;2362;50.780;0.292;2023-08-20T14:39:39;21.70;99.90
4697;DHT22;2362;50.780;0.292;2023-08-20T14:42:05;21.60;99.90
4697;DHT22;2362;50.780;0.292;2023-08-20T14:44:31;21.60;99.90
4697;DHT22;2362;50.780;0.292;2023-08-20T14:46:56;21.70;99.90
4697;DHT22;2362;50.780;0.292;2023-08-20T14:49:22;21.60;99.90
4697;DHT22;2362;50.780;0.292;2023-08-20T14:51:48;21.50;99.90
4697;DHT22;2362;50.780;0.292;2023-08-20T14:54:14;21.50;99.90
4697;DHT22;2362;50.780;0.292;2023-08-20T14:56:40;21.60;99.90
4697;DHT22;2362;50.780;0.292;2023-08-20T14:59:06;21.60;99.90
4697;DHT22;2362;50.780;0.292;2023-08-20T15:01:31;21.60;99.90
4697;DHT22;2362;50.780;0.292;2023-08-20T15:03:57;21.60;99.90
4697;DHT22;2362;50.780;0.292;2023-08-20T15:06:23;21.70;99.90
4697;DHT22;2362;50.780;0.292;2023-08-20T15:08:50;21.70;99.90
4697;DHT22;2362;50.780;0.292;2023-08-20T15:11:16;21.80;99.90
4697;DHT22;2362;50.780;0.292;2023-08-20T15:13:41;21.70;99.90
4697;DHT22;2362;50.780;0.292;2023-08-20T15:16:07;21.80;99.90
4697;DHT22;2362;50.780;0.292;2023-08-20T15:18:33;21.80;99.90
4697;DHT22;2362;50.780;0.292;2023-08-20T15:20:59;21.80;99.90
4697;DHT22;2362;50.780;0.292;2023-08-20T15:23:26;21.70;99.90
4697;DHT22;2362;50.780;0.292;2023-08-20T15:25:54;21.70;99.90
4697;DHT22;2362;50.780;0.292;2023-08-20T15:28:22;21.70;99.90
4697;DHT22;2362;50.780;0.292;2023-08-20T15:30:52;21.70;99.90
4697;DHT22;2362;50.780;0.292;2023-08-20T15:33:19;21.70;99.90
4697;DHT22;2362;50.780;0.292;2023-08-20T15:35:46;21.70;99.90
4697;DHT22;2362;50.780;0.292;2023-08-20T15:38:11;21.60;99.90
4697;DHT22;2362;50.780;0.292;2023-08-20T15:40:40;21.60;99.90
4697;DHT22;2362;50.780;0.292;2023-08-20T15:43:06;21.60;99.90
4697;DHT22;2362;50.780;0.292;2023-08-20T15:45:32;21.60;99.90
4697;DHT22;2362;50.780;0.292;2023-08-20T15:47:57;21.60;99.90
4697;DHT22;2362;50.780;0.292;2023-08-20T15:50:23;21.50;99.90
4697;DHT22;2362;50.780;0.292;2023-08-20T15:52:49;21.50;99.90
4697;DHT22;2362;50.780;0.292;2023-08-20T15:55:15;21.50;99.90
4697;DHT22;2362;50.780;0.292;2023-08-20T15:57:40;21.40;99.90
4697;DHT22;2362;50.780;0.292;2023-08-20T16:00:07;21.30;99.90
4697;DHT22;2362;50.780;0.292;2023-08-20T16:02:45;21.20;99.90
4697;DHT22;2362;50.780;0.292;2023-08-20T16:05:11;21.20;99.90
4697;DHT22;2362;50.780;0.292;2023-08-20T16:07:37;21.20;99.90
4697;DHT22;2362;50.780;0.292;2023-08-20T16:10:04;21.10;99.90
4697;DHT22;2362;50.780;0.292;2023-08-20T16:12:30;21.00;99.90
4697;DHT22;2362;50.780;0.292;2023-08-20T16:14:56;21.00;99.90